Time;durP1;ratioP1;P1;durP2;ratioP2;P2;SDS_P1;SDS_P2;PMS_P1;PMS_P2;Temp;Humidity;BMP_temperature;BMP_pressure;BME280_temperature;BME280_humidity;BME280_pressure;Samples;Min_cycle;Max_cycle;Signal;HPM_P1;HPM_P2
2023/06/13 00:03:00;;;;;;;;;;;;;;;30.46;27.23;93664.31;4913353;28;8270;-65
2023/06/13 00:05:26;;;;;;;;;;;;;;;30.45;26.99;93668.38;4937971;28;7062;-65
2023/06/13 00:07:54;;;;;;;;;;;;;;;30.42;27.98;93660.47;4928302;28;8972;-65
2023/06/13 00:10:30;;;;;;;;;;;;;;;30.45;27.85;93657.28;4947467;28;7282;-66
2023/06/13 00:13:08;;;;;;;;;;;;;;;30.46;27.74;93655.25;4949597;28;7076;-65
2023/06/13 00:16:02;;;;;;;;;;;;;;;30.46;27.43;93646.94;4938093;28;7056;-65
2023/06/13 00:19:03;;;;;;;;;;;;;;;30.44;27.31;93655.81;4930939;28;9385;-66
2023/06/13 00:21:34;;;;;;;;;;;;;;;30.40;27.63;93644.38;4952958;28;7060;-65
2023/06/13 00:24:00;;;;;;;;;;;;;;;30.41;27.37;93645.84;4989678;28;8866;-56
2023/06/13 00:26:34;;;;;;;;;;;;;;;30.41;26.81;93642.31;4981648;28;9337;-55
2023/06/13 00:29:12;;;;;;;;;;;;;;;30.40;26.83;93640.84;4992198;28;9017;-55
2023/06/13 00:31:40;;;;;;;;;;;;;;;30.38;27.49;93641.41;4992014;28;7208;-55
2023/06/13 00:34:37;;;;;;;;;;;;;;;30.39;27.67;93642.88;4992871;28;7148;-56
2023/06/13 00:37:17;;;;;;;;;;;;;;;30.36;27.20;93644.00;4980505;28;8791;-56
2023/06/13 00:40:05;;;;;;;;;;;;;;;30.36;27.65;93635.66;4967461;28;7306;-55
2023/06/13 00:42:45;;;;;;;;;;;;;;;30.37;27.28;93642.72;4979976;28;9080;-58
2023/06/13 00:45:54;;;;;;;;;;;;;;;30.37;27.80;93628.84;4981556;28;8760;-56
2023/06/13 00:48:42;;;;;;;;;;;;;;;30.36;27.25;93627.34;4983475;28;8802;-65
2023/06/13 00:51:42;;;;;;;;;;;;;;;30.34;27.12;93618.84;4981591;28;7258;-65
2023/06/13 00:54:21;;;;;;;;;;;;;;;30.34;26.92;93618.13;4965789;28;9103;-66
2023/06/13 00:57:12;;;;;;;;;;;;;;;30.32;27.92;93617.97;4969155;28;9048;-65
2023/06/13 00:59:53;;;;;;;;;;;;;;;30.29;27.54;93619.03;4982385;28;7505;-65
2023/06/13 01:02:20;;;;;;;;;;;;;;;30.28;26.75;93614.78;4982052;28;7037;-65
2023/06/13 01:05:21;;;;;;;;;;;;;;;30.30;27.46;93612.91;4981142;28;8597;-65
2023/06/13 01:08:09;;;;;;;;;;;;;;;30.26;26.88;93611.81;4922204;29;7239;-63
2023/06/13 01:10:52;;;;;;;;;;;;;;;30.27;27.44;93614.06;4904009;29;7044;-62
2023/06/13 01:14:13;;;;;;;;;;;;;;;30.27;27.52;93608.50;4930019;29;7260;-55
2023/06/13 01:16:56;;;;;;;;;;;;;;;30.27;26.77;93605.75;4876606;29;7757;-56
2023/06/13 01:20:04;;;;;;;;;;;;;;;30.27;27.46;93605.00;4863288;29;7279;-56
2023/06/13 01:23:20;;;;;;;;;;;;;;;30.26;26.79;93606.28;4837526;29;7029;-55
2023/06/13 01:26:25;;;;;;;;;;;;;;;30.25;27.10;93604.81;4838917;29;7161;-56
2023/06/13 01:29:29;;;;;;;;;;;;;;;30.24;27.03;93601.31;4839037;29;8585;-63
2023/06/13 01:32:17;;;;;;;;;;;;;;;30.21;26.69;93599.63;4840766;29;7060;-63
2023/06/13 01:35:01;;;;;;;;;;;;;;;30.22;27.25;93600.38;4838672;29;9248;-63
2023/06/13 01:37:38;;;;;;;;;;;;;;;30.21;27.89;93605.19;4821547;29;8742;-63
2023/06/13 01:40:05;;;;;;;;;;;;;;;30.21;27.38;93599.63;4835350;29;7342;-62
2023/06/13 01:42:38;;;;;;;;;;;;;;;30.19;27.86;93601.53;4841464;29;7086;-63
2023/06/13 01:45:07;;;;;;;;;;;;;;;30.19;27.95;93601.53;4870659;29;7161;-63
2023/06/13 01:48:12;;;;;;;;;;;;;;;30.17;27.92;93604.84;4870368;29;7123;-63
2023/06/13 01:50:57;;;;;;;;;;;;;;;30.18;27.63;93598.00;4847222;29;7047;-63
2023/06/13 01:54:04;;;;;;;;;;;;;;;30.17;27.38;93599.28;4869004;29;7573;-55
2023/06/13 01:57:09;;;;;;;;;;;;;;;30.17;27.41;93599.28;4869018;29;8977;-55
2023/06/13 01:59:55;;;;;;;;;;;;;;;30.15;27.71;93599.09;4850350;29;8033;-63
2023/06/13 02:02:31;;;;;;;;;;;;;;;30.15;27.74;93607.44;4848315;29;7897;-63
2023/06/13 02:05:46;;;;;;;;;;;;;;;30.16;28.44;93610.94;4849378;29;7125;-61
2023/06/13 02:08:22;;;;;;;;;;;;;;;30.15;28.26;93601.13;4795797;29;8759;-62
2023/06/13 02:11:06;;;;;;;;;;;;;;;30.14;28.23;93603.19;4810106;29;7319;-63
2023/06/13 02:13:50;;;;;;;;;;;;;;;30.15;27.61;93607.44;4797537;29;7235;-57
2023/06/13 02:16:25;;;;;;;;;;;;;;;30.15;28.12;93601.13;4808981;29;7916;-57
2023/06/13 02:19:07;;;;;;;;;;;;;;;30.13;28.63;93607.25;4816321;29;7093;-57
2023/06/13 02:21:45;;;;;;;;;;;;;;;30.11;27.58;93612.63;4810264;29;7130;-57
2023/06/13 02:24:21;;;;;;;;;;;;;;;30.09;28.54;93598.59;4798016;29;7175;-57
2023/06/13 02:26:47;;;;;;;;;;;;;;;30.13;28.74;93604.47;4818746;29;7357;-57
2023/06/13 02:29:38;;;;;;;;;;;;;;;30.13;28.02;93604.47;4841451;29;7193;-61
2023/06/13 02:32:06;;;;;;;;;;;;;;;30.10;28.11;93594.50;4921809;29;8247;-61
2023/06/13 02:34:55;;;;;;;;;;;;;;;30.09;28.46;93597.84;4921107;29;7265;-61
2023/06/13 02:37:34;;;;;;;;;;;;;;;30.09;28.37;93597.84;4927534;29;7230;-61
2023/06/13 02:40:09;;;;;;;;;;;;;;;30.08;28.38;93593.59;4904652;29;7174;-61
2023/06/13 02:42:39;;;;;;;;;;;;;;;30.08;28.11;93594.31;4923513;29;9145;-62
2023/06/13 02:45:19;;;;;;;;;;;;;;;30.07;28.25;93595.63;4964878;28;7059;-62
2023/06/13 02:47:58;;;;;;;;;;;;;;;30.07;28.96;93592.13;4996471;28;8782;-61
2023/06/13 02:50:29;;;;;;;;;;;;;;;30.07;27.80;93592.13;4984123;28;7236;-61
2023/06/13 02:53:11;;;;;;;;;;;;;;;30.06;28.93;93605.25;4986883;28;7102;-62
2023/06/13 02:55:52;;;;;;;;;;;;;;;30.05;28.42;93603.78;4984924;28;7069;-62
2023/06/13 02:58:35;;;;;;;;;;;;;;;30.02;28.75;93593.03;4994335;28;7033;-66
2023/06/13 03:01:12;;;;;;;;;;;;;;;30.03;27.91;93595.28;4991108;28;9248;-65
2023/06/13 03:03:47;;;;;;;;;;;;;;;30.01;28.54;93584.00;4982887;28;7302;-63
2023/06/13 03:06:30;;;;;;;;;;;;;;;30.01;28.38;93586.78;4989654;28;9530;-63
2023/06/13 03:08:58;;;;;;;;;;;;;;;30.01;28.47;93586.78;4985595;28;8172;-63
2023/06/13 03:11:25;;;;;;;;;;;;;;;30.01;28.93;93586.78;5008026;28;7302;-62
2023/06/13 03:14:01;;;;;;;;;;;;;;;30.01;28.74;93588.81;4999272;28;7021;-63
2023/06/13 03:16:29;;;;;;;;;;;;;;;29.97;28.19;93591.94;4993140;28;7018;-63
2023/06/13 03:18:55;;;;;;;;;;;;;;;29.97;28.88;93591.94;4983345;28;7557;-55
2023/06/13 03:21:21;;;;;;;;;;;;;;;29.97;28.92;93596.78;5002482;28;7410;-55
2023/06/13 03:23:47;;;;;;;;;;;;;;;29.96;28.40;93601.56;4981543;28;7041;-56
2023/06/13 03:26:22;;;;;;;;;;;;;;;29.95;28.11;93600.09;4982135;28;7102;-55
2023/06/13 03:28:57;;;;;;;;;;;;;;;29.95;28.85;93605.63;4986821;28;7504;-55
2023/06/13 03:31:35;;;;;;;;;;;;;;;29.97;28.62;93616.19;4986684;28;8702;-56
2023/06/13 03:34:04;;;;;;;;;;;;;;;29.96;28.44;93604.34;4992898;28;7240;-63
2023/06/13 03:36:44;;;;;;;;;;;;;;;29.97;28.91;93618.97;4989488;28;7680;-63
2023/06/13 03:39:13;;;;;;;;;;;;;;;29.93;28.99;93615.84;5001068;28;9122;-65
2023/06/13 03:41:42;;;;;;;;;;;;;;;29.92;28.99;93608.78;4981293;28;9162;-65
2023/06/13 03:44:11;;;;;;;;;;;;;;;29.92;28.64;93620.63;4989108;28;7099;-60
2023/06/13 03:46:37;;;;;;;;;;;;;;;29.90;28.06;93617.69;4997323;28;7055;-61
2023/06/13 03:49:03;;;;;;;;;;;;;;;29.92;28.65;93620.63;4981925;28;9094;-61
2023/06/13 03:51:37;;;;;;;;;;;;;;;29.92;28.21;93628.22;4992451;28;9305;-61
2023/06/13 03:54:04;;;;;;;;;;;;;;;29.87;28.45;93623.59;4988029;28;7034;-55
2023/06/13 03:56:36;;;;;;;;;;;;;;;29.87;28.97;93620.81;4985404;28;8720;-55
2023/06/13 03:59:21;;;;;;;;;;;;;;;29.89;28.09;93626.53;4988308;28;9006;-60
2023/06/13 04:01:56;;;;;;;;;;;;;;;29.89;29.14;93627.28;4998886;28;7216;-61
2023/06/13 04:04:22;;;;;;;;;;;;;;;29.88;28.70;93628.59;4984930;28;7100;-61
2023/06/13 04:06:51;;;;;;;;;;;;;;;29.86;28.52;93628.41;4979935;28;7071;-60
2023/06/13 04:09:18;;;;;;;;;;;;;;;29.87;28.74;93629.88;4990868;28;7230;-63
2023/06/13 04:11:46;;;;;;;;;;;;;;;29.86;28.81;93631.19;4978157;28;7273;-63
2023/06/13 04:14:14;;;;;;;;;;;;;;;29.86;28.86;93622.88;4982592;28;7268;-63
2023/06/13 04:16:40;;;;;;;;;;;;;;;29.86;28.73;93624.91;4981569;28;7048;-63
2023/06/13 04:19:34;;;;;;;;;;;;;;;29.85;28.30;93618.59;4982754;28;7188;-56
2023/06/13 04:22:19;;;;;;;;;;;;;;;29.85;28.90;93615.84;4965397;28;7235;-55
2023/06/13 04:25:00;;;;;;;;;;;;;;;29.84;28.72;93617.13;4953214;28;7269;-65
2023/06/13 04:27:43;;;;;;;;;;;;;;;29.82;28.68;93619.72;4963205;28;7191;-65
2023/06/13 04:30:20;;;;;;;;;;;;;;;29.83;28.89;93614.91;4963004;28;8138;-57
2023/06/13 04:32:46;;;;;;;;;;;;;;;29.80;28.60;93622.31;4956166;28;7036;-56
2023/06/13 04:35:37;;;;;;;;;;;;;;;29.79;28.10;93618.06;4945879;28;7242;-56
2023/06/13 04:38:18;;;;;;;;;;;;;;;29.80;27.81;93627.84;4948220;28;9361;-57
2023/06/13 04:40:44;;;;;;;;;;;;;;;29.80;28.08;93625.81;4945012;28;8925;-57
2023/06/13 04:43:21;;;;;;;;;;;;;;;29.80;28.92;93634.13;4960361;28;7471;-57
2023/06/13 04:45:48;;;;;;;;;;;;;;;29.80;28.46;93638.94;4955723;28;7152;-57
2023/06/13 04:48:32;;;;;;;;;;;;;;;29.79;28.29;93635.44;4949253;28;8922;-57
2023/06/13 04:51:15;;;;;;;;;;;;;;;29.76;28.87;93630.25;4939490;28;9429;-57
2023/06/13 04:53:50;;;;;;;;;;;;;;;29.78;29.52;93647.06;4943224;28;7093;-61
2023/06/13 04:56:15;;;;;;;;;;;;;;;29.77;30.07;93638.03;4963273;28;7033;-61
2023/06/13 04:59:08;;;;;;;;;;;;;;;29.83;29.57;93650.94;4963732;28;7911;-62
2023/06/13 05:01:56;;;;;;;;;;;;;;;29.80;30.34;93648.00;4970650;28;8974;-61
2023/06/13 05:04:31;;;;;;;;;;;;;;;29.84;30.64;93650.38;4965751;28;8721;-61
2023/06/13 05:07:05;;;;;;;;;;;;;;;29.84;30.29;93644.84;4964923;28;7030;-61
2023/06/13 05:09:42;;;;;;;;;;;;;;;29.83;29.71;93646.16;4967418;28;7311;-60
2023/06/13 05:12:27;;;;;;;;;;;;;;;29.87;30.24;93659.63;4966444;28;9098;-61
2023/06/13 05:14:57;;;;;;;;;;;;;;;29.86;30.56;93647.81;4962137;28;7062;-60
2023/06/13 05:17:27;;;;;;;;;;;;;;;29.87;29.56;93651.31;4977898;28;7289;-61
2023/06/13 05:20:26;;;;;;;;;;;;;;;29.86;29.80;93656.13;4982304;28;7103;-61
2023/06/13 05:23:02;;;;;;;;;;;;;;;29.84;29.67;93649.66;4963552;28;9375;-61
2023/06/13 05:25:45;;;;;;;;;;;;;;;29.85;29.61;93646.34;4973386;28;7755;-61
2023/06/13 05:28:23;;;;;;;;;;;;;;;29.83;29.76;93651.69;4976588;28;7044;-61
2023/06/13 05:31:05;;;;;;;;;;;;;;;29.83;30.03;93648.94;4964792;28;7051;-61
2023/06/13 05:33:42;;;;;;;;;;;;;;;29.85;29.25;93646.34;4970502;28;7126;-61
2023/06/13 05:36:11;;;;;;;;;;;;;;;29.84;29.49;93644.13;4981670;28;7193;-61
2023/06/13 05:39:00;;;;;;;;;;;;;;;29.82;30.43;93652.97;4976349;28;8705;-61
2023/06/13 05:41:47;;;;;;;;;;;;;;;29.82;30.70;93652.25;4984882;28;9387;-61
2023/06/13 05:44:15;;;;;;;;;;;;;;;29.81;30.41;93645.97;4987519;28;7372;-61
2023/06/13 05:46:59;;;;;;;;;;;;;;;29.80;30.28;93652.81;4998629;28;7005;-61
2023/06/13 05:49:27;;;;;;;;;;;;;;;29.78;31.02;93647.06;4990799;28;8214;-61
2023/06/13 05:52:04;;;;;;;;;;;;;;;29.80;30.98;93650.03;4999879;28;7030;-61
2023/06/13 05:54:55;;;;;;;;;;;;;;;29.82;30.09;93643.94;4989312;28;7054;-61
2023/06/13 05:57:43;;;;;;;;;;;;;;;29.82;29.52;93650.22;4986748;28;8953;-61
2023/06/13 06:00:14;;;;;;;;;;;;;;;29.81;30.12;93645.97;4984809;28;8035;-61
2023/06/13 06:02:44;;;;;;;;;;;;;;;29.80;29.71;93636.91;5000220;28;7045;-60
2023/06/13 06:05:14;;;;;;;;;;;;;;;29.84;29.40;93633.75;4986015;28;7321;-60
2023/06/13 06:07:46;;;;;;;;;;;;;;;29.83;29.52;93637.84;4990497;28;7266;-61
2023/06/13 06:10:22;;;;;;;;;;;;;;;29.81;28.70;93632.13;4984712;28;7096;-61
2023/06/13 06:12:52;;;;;;;;;;;;;;;29.79;29.65;93635.44;4985278;28;7257;-61
2023/06/13 06:19:00;;;;;;;;;;;;;;;29.79;29.33;93640.25;4987714;28;7506;-61
2023/06/13 06:21:43;;;;;;;;;;;;;;;29.76;28.71;93641.34;4979671;28;7099;-61
2023/06/13 06:24:47;;;;;;;;;;;;;;;29.77;28.48;93646.34;4988724;28;7043;-60
2023/06/13 06:27:20;;;;;;;;;;;;;;;29.75;28.77;93650.97;4981520;28;8961;-61
2023/06/13 06:30:00;;;;;;;;;;;;;;;29.71;27.88;93650.59;4980207;28;7262;-61
2023/06/13 06:32:43;;;;;;;;;;;;;;;29.70;27.42;93644.28;4996730;28;8980;-61
2023/06/13 06:35:22;;;;;;;;;;;;;;;29.65;28.82;93638.94;4994101;28;7495;-61
2023/06/13 06:37:48;;;;;;;;;;;;;;;29.69;28.43;93645.56;5009299;28;8663;-61
2023/06/13 06:40:20;;;;;;;;;;;;;;;29.67;28.44;93652.97;4987331;28;7076;-61
2023/06/13 06:42:48;;;;;;;;;;;;;;;29.64;28.61;93649.28;4995926;28;7422;-61
2023/06/13 06:45:26;;;;;;;;;;;;;;;29.68;28.04;93643.38;4988834;28;8723;-61
2023/06/13 06:47:53;;;;;;;;;;;;;;;29.67;27.61;93642.63;4989761;28;7326;-61
2023/06/13 06:50:24;;;;;;;;;;;;;;;29.64;28.68;93643.00;4986403;28;7278;-61
2023/06/13 06:52:51;;;;;;;;;;;;;;;29.65;27.85;93639.66;4989497;28;7093;-61
2023/06/13 06:55:36;;;;;;;;;;;;;;;29.66;28.05;93637.66;5005485;28;6971;-61
2023/06/13 06:58:13;;;;;;;;;;;;;;;29.66;27.33;93640.41;5004850;28;6985;-61
2023/06/13 07:00:46;;;;;;;;;;;;;;;29.63;28.33;93633.94;4987669;28;9712;-60
2023/06/13 07:03:15;;;;;;;;;;;;;;;29.65;28.05;93644.47;5005165;28;7344;-61
2023/06/13 07:05:48;;;;;;;;;;;;;;;29.65;27.96;93636.16;4991406;28;7255;-61
2023/06/13 07:08:16;;;;;;;;;;;;;;;29.63;27.83;93627.66;4991130;28;7315;-61
2023/06/13 07:10:46;;;;;;;;;;;;;;;29.59;28.48;93632.84;4989489;28;7473;-61
2023/06/13 07:13:25;;;;;;;;;;;;;;;29.64;27.81;93626.38;5001005;28;7128;-61
2023/06/13 07:16:30;;;;;;;;;;;;;;;29.64;28.51;93620.84;5005802;28;7291;-61
2023/06/13 07:19:03;;;;;;;;;;;;;;;29.62;27.67;93629.69;4991565;28;7584;-61
2023/06/13 07:21:29;;;;;;;;;;;;;;;29.59;28.20;93630.06;4988782;28;7371;-61
2023/06/13 07:24:29;;;;;;;;;;;;;;;29.58;28.52;93631.38;5003847;28;9097;-64
2023/06/13 07:31:04;;;;;;;;;;;;;;;29.58;28.35;93629.31;4962989;28;7116;-64
2023/06/13 07:33:40;;;;;;;;;;;;;;;29.61;27.65;93635.78;4948427;28;7185;-64
2023/06/13 07:36:16;;;;;;;;;;;;;;;29.62;27.27;93628.97;4957634;28;8959;-64
2023/06/13 07:38:42;;;;;;;;;;;;;;;29.58;28.17;93634.16;4948324;28;7241;-64
2023/06/13 07:41:44;;;;;;;;;;;;;;;29.63;27.14;93630.44;4952144;28;7296;-64
2023/06/13 07:44:18;;;;;;;;;;;;;;;29.59;27.90;93635.63;4874663;29;9028;-64
2023/06/13 07:46:44;;;;;;;;;;;;;;;29.60;27.89;93639.88;4875305;29;7445;-64
2023/06/13 07:49:10;;;;;;;;;;;;;;;29.59;28.02;93639.13;4893094;29;9102;-64
2023/06/13 07:51:37;;;;;;;;;;;;;;;29.59;27.83;93619.72;4890353;29;7189;-64
2023/06/13 07:54:03;;;;;;;;;;;;;;;29.57;28.10;93627.13;4873529;29;8746;-64
2023/06/13 07:56:29;;;;;;;;;;;;;;;29.59;27.67;93619.72;4876480;29;7261;-64
2023/06/13 07:58:55;;;;;;;;;;;;;;;29.59;27.97;93625.28;4886141;29;7569;-64
2023/06/13 08:01:27;;;;;;;;;;;;;;;29.57;28.43;93619.56;4894903;29;7241;-64
2023/06/13 08:04:29;;;;;;;;;;;;;;;29.59;28.31;93618.97;4882531;29;8716;-63
2023/06/13 08:06:59;;;;;;;;;;;;;;;29.59;28.41;93611.41;4872545;29;8831;-63
2023/06/13 08:09:25;;;;;;;;;;;;;;;29.60;28.67;93614.94;4884623;29;8706;-63
2023/06/13 08:11:52;;;;;;;;;;;;;;;29.59;28.67;93610.66;4887175;29;7413;-64
2023/06/13 08:14:18;;;;;;;;;;;;;;;29.61;28.12;93613.63;4883800;29;7259;-64
2023/06/13 08:16:45;;;;;;;;;;;;;;;29.61;28.59;93619.91;4884639;29;8706;-64
2023/06/13 08:19:23;;;;;;;;;;;;;;;29.62;29.06;93612.34;4915127;28;8977;-61
2023/06/13 08:21:51;;;;;;;;;;;;;;;29.62;28.35;93610.28;4987545;28;7320;-61
2023/06/13 08:24:17;;;;;;;;;;;;;;;29.64;28.64;93613.28;4986078;28;8753;-62
2023/06/13 08:26:44;;;;;;;;;;;;;;;29.63;27.99;93611.78;4992441;28;7315;-62
2023/06/13 08:29:13;;;;;;;;;;;;;;;29.66;29.05;93615.47;4992756;28;9417;-62
2023/06/13 08:31:41;;;;;;;;;;;;;;;29.67;28.34;93609.38;4979110;28;7323;-62
2023/06/13 08:34:09;;;;;;;;;;;;;;;29.65;28.95;93605.66;4981359;28;9385;-62
2023/06/13 08:36:36;;;;;;;;;;;;;;;29.68;29.12;93610.13;4981301;28;7024;-62
2023/06/13 08:39:04;;;;;;;;;;;;;;;29.66;29.17;93604.38;4979244;28;9250;-62
2023/06/13 08:41:44;;;;;;;;;;;;;;;29.71;28.94;93609.00;4984884;28;8952;-62
2023/06/13 08:44:29;;;;;;;;;;;;;;;29.68;28.08;93604.56;4990133;28;9147;-62
2023/06/13 08:46:57;;;;;;;;;;;;;;;29.69;28.57;93612.31;4984575;28;9114;-62
2023/06/13 08:49:25;;;;;;;;;;;;;;;29.69;28.33;93608.81;4985724;28;9167;-62
2023/06/13 08:52:07;;;;;;;;;;;;;;;29.69;28.48;93614.34;4999612;28;7369;-62
2023/06/13 08:54:58;;;;;;;;;;;;;;;29.66;29.28;93607.16;4984954;28;7246;-62
2023/06/13 08:57:31;;;;;;;;;;;;;;;29.67;28.73;93603.81;4996798;28;7337;-62
2023/06/13 09:00:29;;;;;;;;;;;;;;;29.68;29.34;93602.53;4984269;28;7099;-61
2023/06/13 09:03:00;;;;;;;;;;;;;;;29.64;29.06;93598.66;4989402;28;9099;-64
2023/06/13 09:06:14;;;;;;;;;;;;;;;29.66;29.42;93601.63;4998491;28;7005;-64
2023/06/13 09:08:42;;;;;;;;;;;;;;;29.65;29.42;93606.41;4963079;28;8670;-64
2023/06/13 09:11:27;;;;;;;;;;;;;;;29.67;28.96;93608.63;4963456;28;7100;-64
2023/06/13 09:14:24;;;;;;;;;;;;;;;29.67;28.41;93611.41;4962611;28;8771;-64
2023/06/13 09:16:54;;;;;;;;;;;;;;;29.67;28.98;93605.84;4900330;29;7225;-64
2023/06/13 09:19:23;;;;;;;;;;;;;;;29.67;29.14;93603.81;4905161;29;7004;-57
2023/06/13 09:21:58;;;;;;;;;;;;;;;29.68;29.10;93601.78;4896717;29;7134;-57
2023/06/13 09:24:31;;;;;;;;;;;;;;;29.67;28.65;93603.81;4889941;29;7243;-57
2023/06/13 09:27:01;;;;;;;;;;;;;;;29.69;28.55;93606.78;4904663;29;7276;-57
2023/06/13 09:29:49;;;;;;;;;;;;;;;29.69;29.32;93603.25;4904931;29;8772;-58
2023/06/13 09:33:10;;;;;;;;;;;;;;;29.69;28.19;93606.03;4913940;29;6983;-57
2023/06/13 09:35:47;;;;;;;;;;;;;;;29.68;28.63;93610.13;4891925;29;8399;-57
2023/06/13 09:38:50;;;;;;;;;;;;;;;29.68;28.30;93605.31;4895963;29;9018;-57
2023/06/13 09:41:45;;;;;;;;;;;;;;;29.70;28.26;93610.28;4870018;29;7269;-57
2023/06/13 09:44:15;;;;;;;;;;;;;;;29.70;28.62;93607.53;4866241;29;7079;-57
2023/06/13 09:46:56;;;;;;;;;;;;;;;29.69;28.48;93595.69;4848936;29;7155;-57
2023/06/13 09:49:23;;;;;;;;;;;;;;;29.71;28.67;93598.63;4834105;29;9097;-57
2023/06/13 09:52:08;;;;;;;;;;;;;;;29.72;28.78;93600.13;4852101;29;9254;-57
2023/06/13 09:54:48;;;;;;;;;;;;;;;29.72;29.37;93596.63;4905465;29;8903;-58
2023/06/13 09:57:25;;;;;;;;;;;;;;;29.72;29.58;93604.94;4896543;29;7432;-57
2023/06/13 10:00:10;;;;;;;;;;;;;;;29.73;29.35;93603.66;4897409;29;7666;-57
2023/06/13 10:02:37;;;;;;;;;;;;;;;29.74;29.22;93596.81;4906002;29;7279;-57
2023/06/13 10:05:17;;;;;;;;;;;;;;;29.77;29.13;93590.91;4904809;29;7706;-57
2023/06/13 10:08:07;;;;;;;;;;;;;;;29.78;28.69;93599.94;4890056;29;7472;-57
2023/06/13 10:10:44;;;;;;;;;;;;;;;29.79;28.62;93595.91;4904941;29;9015;-57
2023/06/13 10:13:27;;;;;;;;;;;;;;;29.80;28.37;93594.59;4904558;29;7239;-57
2023/06/13 10:16:13;;;;;;;;;;;;;;;29.79;28.96;93598.66;4964757;28;7019;-57
2023/06/13 10:18:59;;;;;;;;;;;;;;;29.81;29.32;93590.53;4980892;28;7052;-57
2023/06/13 10:21:42;;;;;;;;;;;;;;;29.81;28.90;93590.53;4981837;28;7233;-57
2023/06/13 10:24:16;;;;;;;;;;;;;;;29.82;29.50;93592.00;4978110;28;6986;-57
2023/06/13 10:26:44;;;;;;;;;;;;;;;29.79;29.98;93601.44;4977489;28;7389;-58
2023/06/13 10:29:50;;;;;;;;;;;;;;;29.80;29.34;93605.66;4995312;28;8692;-56
2023/06/13 10:32:53;;;;;;;;;;;;;;;29.80;29.86;93600.13;4993060;28;8833;-56
2023/06/13 10:35:40;;;;;;;;;;;;;;;29.84;29.44;93606.03;4977765;28;9233;-56
2023/06/13 10:38:33;;;;;;;;;;;;;;;29.84;29.55;93597.72;4979627;28;7173;-56
2023/06/13 10:41:52;;;;;;;;;;;;;;;29.86;29.46;93597.91;4985341;28;7260;-56
2023/06/13 10:48:14;;;;;;;;;;;;;;;29.87;29.85;93596.59;4980584;28;7186;-56
2023/06/13 10:50:43;;;;;;;;;;;;;;;29.86;29.18;93586.09;4978222;28;7213;-56
2023/06/13 10:53:24;;;;;;;;;;;;;;;29.88;29.84;93581.47;4978826;28;9041;-56
2023/06/13 10:56:42;;;;;;;;;;;;;;;29.89;29.37;93579.41;4964964;28;8999;-56
2023/06/13 10:59:17;;;;;;;;;;;;;;;29.88;29.76;93578.69;4935634;29;7124;-56
2023/06/13 11:01:44;;;;;;;;;;;;;;;29.88;30.21;93578.69;4936107;29;7300;-56
2023/06/13 11:04:14;;;;;;;;;;;;;;;29.90;30.08;93578.13;4949237;29;6982;-56
2023/06/13 11:06:46;;;;;;;;;;;;;;;29.91;28.95;93576.81;4934158;29;9033;-56
2023/06/13 11:09:19;;;;;;;;;;;;;;;29.91;29.75;93577.56;4934897;29;8862;-56
2023/06/13 11:12:12;;;;;;;;;;;;;;;29.93;28.83;93580.50;4935985;29;8007;-56
2023/06/13 11:14:59;;;;;;;;;;;;;;;29.92;29.57;93567.94;4942703;29;7292;-56
2023/06/13 11:18:22;;;;;;;;;;;;;;;29.95;29.08;93572.38;4953840;28;7046;-56
2023/06/13 11:21:07;;;;;;;;;;;;;;;29.96;28.90;93567.56;4935151;28;7022;-56
2023/06/13 11:23:54;;;;;;;;;;;;;;;29.96;30.07;93573.84;4940967;28;7234;-56
2023/06/13 11:26:30;;;;;;;;;;;;;;;29.97;29.79;93563.50;4936113;28;8041;-56
2023/06/13 11:29:28;;;;;;;;;;;;;;;29.98;29.55;93568.47;4937480;28;7266;-56
2023/06/13 11:31:56;;;;;;;;;;;;;;;29.96;30.00;93565.53;4952642;28;7028;-56
2023/06/13 11:34:32;;;;;;;;;;;;;;;29.96;30.10;93562.75;4961985;28;9031;-56
2023/06/13 11:37:28;;;;;;;;;;;;;;;29.96;29.92;93557.22;4982392;28;9161;-56
2023/06/13 11:39:59;;;;;;;;;;;;;;;29.97;29.65;93555.91;4984977;28;7258;-56
2023/06/13 11:42:28;;;;;;;;;;;;;;;29.98;29.03;93549.06;4986853;28;7380;-56
2023/06/13 11:45:02;;;;;;;;;;;;;;;29.97;29.95;93547.59;4992650;28;7192;-56
2023/06/13 11:47:36;;;;;;;;;;;;;;;30.00;28.48;93559.59;4989125;28;8887;-56
2023/06/13 11:50:05;;;;;;;;;;;;;;;30.02;29.66;93554.22;4996817;28;7029;-56
2023/06/13 11:53:08;;;;;;;;;;;;;;;30.03;28.61;93559.22;4991658;28;9265;-56
2023/06/13 11:55:40;;;;;;;;;;;;;;;30.03;28.47;93555.72;4992572;28;7376;-56
2023/06/13 11:58:31;;;;;;;;;;;;;;;30.05;28.50;93562.19;4984366;28;8312;-56
2023/06/13 12:01:17;;;;;;;;;;;;;;;30.10;28.90;93566.03;4992794;28;7041;-56
2023/06/13 12:03:47;;;;;;;;;;;;;;;30.12;28.61;93564.19;4999506;28;7213;-56
2023/06/13 12:06:16;;;;;;;;;;;;;;;30.10;28.78;93554.94;4994340;28;7172;-56
2023/06/13 12:08:48;;;;;;;;;;;;;;;30.12;28.57;93555.88;5001019;28;8921;-56
2023/06/13 12:11:41;;;;;;;;;;;;;;;30.13;29.67;93549.00;5001870;28;9629;-56
2023/06/13 12:14:20;;;;;;;;;;;;;;;30.15;28.41;93546.41;4950164;28;8243;-56
2023/06/13 12:17:26;;;;;;;;;;;;;;;30.17;29.45;93545.84;4954195;28;7054;-56
2023/06/13 12:20:10;;;;;;;;;;;;;;;30.17;28.66;93543.81;4896785;29;7130;-56
2023/06/13 12:22:37;;;;;;;;;;;;;;;30.17;29.25;93543.06;4894554;29;9355;-57
2023/06/13 12:25:12;;;;;;;;;;;;;;;30.22;28.71;93547.69;4878470;29;7189;-56
2023/06/13 12:28:01;;;;;;;;;;;;;;;30.23;28.39;93543.63;4897188;29;9082;-56
2023/06/13 12:30:49;;;;;;;;;;;;;;;30.23;28.28;93555.44;4896824;29;7570;-56
2023/06/13 12:33:23;;;;;;;;;;;;;;;30.25;28.98;93546.56;4881588;29;8939;-56
2023/06/13 12:35:54;;;;;;;;;;;;;;;30.28;29.17;93546.16;4880617;29;9067;-56
2023/06/13 12:38:55;;;;;;;;;;;;;;;30.33;28.40;93538.97;4894423;29;7034;-56
2023/06/13 12:41:32;;;;;;;;;;;;;;;30.33;29.57;93544.50;4881872;29;8741;-56
2023/06/13 12:44:13;;;;;;;;;;;;;;;30.38;29.13;93535.25;4896697;29;7498;-56
2023/06/13 12:50:10;;;;;;;;;;;;;;;30.35;29.19;93533.59;4913314;28;7052;-57
2023/06/13 12:53:08;;;;;;;;;;;;;;;30.37;29.54;93542.81;4992059;28;6936;-56
2023/06/13 12:55:35;;;;;;;;;;;;;;;30.40;29.68;93532.63;4978871;28;9052;-56
2023/06/13 12:58:22;;;;;;;;;;;;;;;30.44;29.22;93530.22;4972553;28;9034;-56
2023/06/13 13:00:50;;;;;;;;;;;;;;;30.44;29.47;93522.63;4965155;28;7065;-57
2023/06/13 13:03:20;;;;;;;;;;;;;;;30.44;28.71;93522.63;4972559;28;7194;-62
2023/06/13 13:05:46;;;;;;;;;;;;;;;30.48;28.44;93522.22;4976130;28;7497;-62
2023/06/13 13:08:25;;;;;;;;;;;;;;;30.50;28.96;93523.16;4971851;28;7038;-62
2023/06/13 13:11:36;;;;;;;;;;;;;;;30.51;29.12;93523.88;4972295;28;7030;-62
2023/06/13 13:14:21;;;;;;;;;;;;;;;30.53;28.58;93522.03;4897265;29;7055;-61
2023/06/13 13:16:52;;;;;;;;;;;;;;;30.53;29.25;93513.69;4903799;29;7477;-62
2023/06/13 13:19:32;;;;;;;;;;;;;;;30.54;29.54;93514.41;4882400;29;8725;-61
2023/06/13 13:22:01;;;;;;;;;;;;;;;30.57;29.23;93507.75;4893555;29;8704;-61
2023/06/13 13:24:36;;;;;;;;;;;;;;;30.57;28.93;93504.22;4903576;29;7043;-62
2023/06/13 13:27:03;;;;;;;;;;;;;;;30.63;29.24;93499.19;4877721;29;8691;-62
2023/06/13 13:29:34;;;;;;;;;;;;;;;30.64;28.76;93500.66;4877269;29;7254;-62
2023/06/13 13:32:27;;;;;;;;;;;;;;;30.67;28.79;93491.94;4910387;29;7144;-62
2023/06/13 13:35:14;;;;;;;;;;;;;;;30.71;29.87;93488.78;4908972;29;7033;-61
2023/06/13 13:38:18;;;;;;;;;;;;;;;30.73;29.16;93486.16;4895299;29;7255;-61
2023/06/13 13:40:54;;;;;;;;;;;;;;;30.74;29.64;93482.81;4923939;29;9070;-61
2023/06/13 13:43:33;;;;;;;;;;;;;;;30.77;29.30;93480.94;4925608;29;7257;-61
2023/06/13 13:46:17;;;;;;;;;;;;;;;30.78;29.18;93485.94;4911665;29;7026;-61
2023/06/13 13:49:07;;;;;;;;;;;;;;;30.79;28.59;93495.75;4918436;29;6861;-62
2023/06/13 13:51:35;;;;;;;;;;;;;;;30.82;28.97;93494.59;4975363;28;7055;-62
2023/06/13 13:54:01;;;;;;;;;;;;;;;30.82;28.44;93489.03;4979084;28;7233;-61
2023/06/13 13:56:36;;;;;;;;;;;;;;;30.84;29.62;93485.72;4995294;28;8946;-61
2023/06/13 13:59:02;;;;;;;;;;;;;;;30.89;29.09;93490.31;4979195;28;6992;-61
2023/06/13 14:01:28;;;;;;;;;;;;;;;30.91;28.05;93488.44;4977952;28;9250;-62
2023/06/13 14:03:54;;;;;;;;;;;;;;;30.95;28.97;93496.41;4995420;28;7604;-61
2023/06/13 14:06:22;;;;;;;;;;;;;;;30.96;29.37;93486.75;4978241;28;7515;-61
2023/06/13 14:09:04;;;;;;;;;;;;;;;31.01;28.30;93488.56;4986951;28;9015;-61
2023/06/13 14:11:37;;;;;;;;;;;;;;;31.01;29.31;93480.97;5001049;28;7496;-60
2023/06/13 14:14:23;;;;;;;;;;;;;;;31.02;29.16;93484.47;4998788;28;7425;-61
2023/06/13 14:17:00;;;;;;;;;;;;;;;30.99;29.08;93480.78;4983952;28;9018;-61